createdAt,value
2022-12-25T07:26:24.399Z,99597.71
2022-12-25T07:29:14.645Z,99592.95
2022-12-25T11:57:57.620Z,99660.88
2022-12-25T12:23:24.102Z,99629.77
2022-12-25T12:31:13.062Z,99636.46
2022-12-25T12:34:24.314Z,99640.76
2022-12-25T12:37:24.816Z,99642.95
2022-12-25T12:40:30.754Z,99651.23
2022-12-25T12:43:29.607Z,99646.63
2022-12-25T12:46:27.981Z,99647.74
2022-12-25T12:49:23.946Z,99641.85
2022-12-25T12:52:27.443Z,99636.80
2022-12-25T12:55:29.179Z,99632.48
2022-12-25T12:58:30.050Z,99629.61
2022-12-25T13:01:29.776Z,99633.02
2022-12-25T13:04:34.892Z,99632.70
2022-12-25T13:07:34.441Z,99635.14
2022-12-25T13:10:27.402Z,99632.82
2022-12-25T13:13:21.774Z,99633.85
2022-12-25T13:16:19.032Z,99628.56
2022-12-25T13:19:13.730Z,99634.30
2022-12-25T13:22:26.031Z,99634.33
2022-12-25T13:25:22.696Z,99635.96
2022-12-25T13:28:18.475Z,99627.50
2022-12-25T13:31:15.787Z,99618.70
2022-12-25T13:34:07.372Z,99612.81
2022-12-25T13:36:59.661Z,99618.11
2022-12-25T13:39:57.363Z,99616.11
2022-12-25T13:42:52.771Z,99617.17
2022-12-25T13:45:43.368Z,99613.40
2022-12-25T13:48:34.194Z,99606.80
2022-12-25T13:51:24.765Z,99605.06
2022-12-25T13:54:16.295Z,99597.84
2022-12-25T13:57:10.689Z,99594.91
2022-12-25T14:00:04.629Z,99587.92
2022-12-25T14:02:55.996Z,99590.73
2022-12-25T14:05:46.880Z,99591.10
2022-12-25T14:08:37.939Z,99586.02
2022-12-25T14:11:30.245Z,99585.20
2022-12-25T14:14:23.518Z,99584.55
2022-12-25T14:17:16.462Z,99582.20
2022-12-25T14:20:09.051Z,99584.81
2022-12-25T14:23:01.018Z,99574.58
2022-12-25T14:25:51.640Z,99574.46
2022-12-25T14:28:42.162Z,99573.66
2022-12-25T14:31:34.259Z,99573.65
2022-12-25T14:34:28.707Z,99575.79
2022-12-25T14:37:20.809Z,99575.64
2022-12-25T14:40:23.687Z,99573.95
2022-12-25T14:43:23.360Z,99573.26
2022-12-25T14:46:24.158Z,99571.26
2022-12-25T14:49:26.901Z,99567.07
2022-12-25T14:52:22.698Z,99569.59
2022-12-25T14:55:21.124Z,99567.17
2022-12-25T14:58:21.092Z,99566.93
2022-12-25T15:01:25.410Z,99564.33
2022-12-25T15:04:17.469Z,99561.83
2022-12-25T15:07:10.665Z,99558.85
2022-12-25T15:10:57.051Z,99555.50
2022-12-25T15:13:15.825Z,99552.59
2022-12-25T15:16:16.283Z,99560.15
2022-12-25T15:19:08.478Z,99563.23
2022-12-25T15:22:02.638Z,99564.88
2022-12-25T15:25:02.504Z,99567.01
2022-12-25T15:27:55.882Z,99566.49
2022-12-25T15:30:46.617Z,99557.48
2022-12-25T15:33:43.982Z,99556.80
2022-12-25T15:36:35.624Z,99547.92
2022-12-25T15:39:25.993Z,99550.88
2022-12-25T15:42:22.938Z,99548.52
2022-12-25T15:45:20.972Z,99547.56
2022-12-25T15:48:11.850Z,99551.77
2022-12-25T15:51:04.965Z,99551.67
2022-12-25T15:53:56.123Z,99558.93
2022-12-25T15:56:48.803Z,99558.59
2022-12-25T15:59:43.598Z,99563.23
2022-12-25T16:02:34.746Z,99566.29
2022-12-25T16:05:26.306Z,99563.71
2022-12-25T16:08:16.784Z,99565.80
2022-12-25T16:11:08.493Z,99567.00
2022-12-25T16:14:00.659Z,99570.45
2022-12-25T16:17:18.933Z,99572.20
2022-12-25T16:20:17.464Z,99569.52
2022-12-25T16:23:10.661Z,99569.40
2022-12-25T16:26:04.283Z,99571.58
2022-12-25T16:29:01.164Z,99560.86
2022-12-25T16:32:01.621Z,99559.46
2022-12-25T16:34:52.512Z,99560.10
2022-12-25T16:37:51.295Z,99555.14
2022-12-25T16:40:55.395Z,99549.45
2022-12-25T16:43:56.223Z,99545.41
2022-12-25T16:46:47.813Z,99543.55
2022-12-25T16:49:38.651Z,99542.67
2022-12-25T16:52:29.614Z,99542.20
2022-12-25T16:55:24.981Z,99545.70
2022-12-25T16:58:18.631Z,99547.89
2022-12-25T17:01:15.228Z,99554.02
2022-12-25T17:04:05.859Z,99549.16
2022-12-25T17:06:56.289Z,99547.58
2022-12-25T17:09:47.878Z,99550.49
2022-12-25T17:12:38.282Z,99548.58
2022-12-25T17:15:36.226Z,99546.63
2022-12-25T17:18:28.929Z,99545.77
2022-12-25T17:21:19.243Z,99548.64
2022-12-25T17:24:10.473Z,99551.62
2022-12-25T17:27:01.035Z,99551.16
2022-12-25T17:29:53.895Z,99556.45
2022-12-25T17:32:54.076Z,99557.83
2022-12-25T17:35:48.207Z,99556.41
2022-12-25T17:38:41.551Z,99556.85
2022-12-25T17:41:32.096Z,99547.02
2022-12-25T17:44:22.333Z,99541.88
2022-12-25T17:47:12.653Z,99548.34
2022-12-25T17:50:03.065Z,99548.81
2022-12-25T17:52:54.013Z,99548.09
2022-12-25T17:55:44.560Z,99543.50
2022-12-25T17:58:39.308Z,99542.78
2022-12-25T18:01:31.950Z,99546.20
2022-12-25T18:04:22.321Z,99550.05
2022-12-25T18:07:12.803Z,99553.00
2022-12-25T18:10:03.297Z,99550.04
2022-12-25T18:12:53.831Z,99552.58
2022-12-25T18:15:44.440Z,99549.77
2022-12-25T18:18:35.136Z,99551.93
2022-12-25T18:21:28.745Z,99548.63
2022-12-25T18:24:19.478Z,99544.39
2022-12-25T18:27:09.940Z,99543.58
2022-12-25T18:30:00.610Z,99556.66
2022-12-25T18:32:51.740Z,99568.30
2022-12-25T18:35:42.787Z,99579.02
2022-12-25T18:38:33.344Z,99588.98
2022-12-25T18:41:27.110Z,99588.63
2022-12-25T18:44:21.325Z,99600.50
2022-12-25T18:47:13.836Z,99610.11
2022-12-25T18:50:04.395Z,99626.75
2022-12-25T18:52:54.830Z,99635.88
2022-12-25T18:55:45.430Z,99640.88
2022-12-25T18:58:37.616Z,99652.32
2022-12-25T19:01:28.169Z,99666.13
2022-12-25T19:04:18.826Z,99680.83
2022-12-25T19:07:10.910Z,99698.13
2022-12-25T19:10:04.436Z,99714.71
2022-12-25T19:12:57.912Z,99738.55
2022-12-25T19:15:49.970Z,99746.83
2022-12-25T19:18:41.363Z,99756.70
2022-12-25T19:21:31.849Z,99776.08
2022-12-25T19:24:25.107Z,99783.46
2022-12-25T19:27:15.501Z,99792.23
2022-12-25T19:30:06.683Z,99810.20
2022-12-25T19:32:59.724Z,99828.77
2022-12-25T19:35:50.129Z,99838.58
2022-12-25T19:38:40.587Z,99851.24
2022-12-25T19:41:31.414Z,99866.08
2022-12-25T19:44:22.126Z,99881.30
2022-12-25T19:47:16.082Z,99887.96
2022-12-25T19:50:10.246Z,99901.19
2022-12-25T19:53:00.781Z,99907.42
2022-12-25T19:55:52.453Z,99919.45
2022-12-25T19:58:45.079Z,99933.29
2022-12-25T20:01:43.581Z,99950.70
2022-12-25T20:04:34.320Z,99959.86
2022-12-25T20:07:26.214Z,99974.31
2022-12-25T20:10:17.383Z,99982.59
2022-12-25T20:13:07.830Z,99992.55
2022-12-25T20:16:02.453Z,100006.16
2022-12-25T20:18:53.470Z,100015.61
2022-12-25T20:21:44.039Z,100025.44
2022-12-25T20:24:34.565Z,100036.02
2022-12-25T20:27:25.459Z,100042.14
2022-12-25T20:30:16.321Z,100050.86
2022-12-25T20:33:21.279Z,100059.80
2022-12-25T20:36:13.010Z,100067.33
2022-12-25T20:39:12.875Z,100075.92
2022-12-25T20:42:09.808Z,100084.98
2022-12-25T21:32:16.285Z,100190.52
2022-12-25T21:35:05.433Z,100198.00
2022-12-25T21:37:53.859Z,100208.69
2022-12-25T21:40:42.352Z,100215.99
2022-12-25T21:43:30.891Z,100219.75
2022-12-25T21:46:19.759Z,100227.75
2022-12-25T21:49:09.133Z,100238.24
2022-12-25T21:52:10.424Z,100247.67
2022-12-25T21:54:58.968Z,100252.22
2022-12-25T21:57:47.768Z,100260.88
2022-12-25T22:00:38.831Z,100265.09
2022-12-25T22:03:27.430Z,100275.38
2022-12-25T22:06:34.793Z,100286.67
2022-12-25T22:09:23.448Z,100290.94
2022-12-25T22:12:34.131Z,100296.60
2022-12-25T22:15:22.971Z,100298.36
2022-12-25T22:18:29.621Z,100305.73
2022-12-25T22:21:19.779Z,100313.48
2022-12-25T22:24:09.099Z,100322.70
2022-12-25T22:26:57.341Z,100335.73
2022-12-25T22:29:46.269Z,100343.94
2022-12-25T22:32:34.459Z,100351.61
2022-12-25T22:35:23.265Z,100363.14
2022-12-25T22:38:11.823Z,100371.73
2022-12-25T22:41:04.427Z,100374.63
2022-12-25T22:44:16.640Z,100382.19
2022-12-25T22:47:01.402Z,100395.86
2022-12-25T22:49:51.849Z,100406.09
2022-12-25T22:52:40.567Z,100407.97
2022-12-25T22:55:29.114Z,100415.84
2022-12-25T22:58:18.165Z,100419.33
2022-12-25T23:01:09.789Z,100426.69
2022-12-25T23:03:58.608Z,100429.85
2022-12-25T23:06:47.164Z,100432.20
2022-12-25T23:09:35.939Z,100446.44
2022-12-25T23:12:42.599Z,100451.55
2022-12-25T23:15:31.998Z,100459.67
2022-12-25T23:18:38.545Z,100467.60
2022-12-25T23:21:46.209Z,100477.20
2022-12-25T23:24:53.045Z,100483.85
2022-12-25T23:27:41.902Z,100485.29
2022-12-25T23:30:30.408Z,100488.83
2022-12-25T23:33:18.990Z,100497.02
2022-12-25T23:36:08.263Z,100499.60
2022-12-25T23:38:57.627Z,100505.19
2022-12-25T23:41:48.871Z,100507.77
2022-12-25T23:44:37.551Z,100509.40
2022-12-25T23:47:26.250Z,100512.13
2022-12-25T23:50:14.852Z,100517.30
2022-12-25T23:53:03.852Z,100520.85
2022-12-25T23:55:55.830Z,100521.14
2022-12-25T23:58:50.892Z,100522.27
